Time;durP1;ratioP1;P1;durP2;ratioP2;P2;SDS_P1;SDS_P2;PMS_P1;PMS_P2;Temp;Humidity;BMP_temperature;BMP_pressure;BME280_temperature;BME280_humidity;BME280_pressure;Samples;Min_cycle;Max_cycle;Signal;HPM_P1;HPM_P2
2021/04/25 00:02:09;;;;;;;11.63;6.35;;;;;;;6.78;43.61;100468.88;4911359;29;20107;-72
2021/04/25 00:04:36;;;;;;;20.83;12.30;;;;;;;6.70;43.33;100472.75;4910277;29;20123;-71
2021/04/25 00:07:04;;;;;;;14.77;7.63;;;;;;;6.72;43.08;100469.19;4912143;29;20056;-76
2021/04/25 00:09:30;;;;;;;13.68;7.75;;;;;;;6.73;42.96;100471.72;4911704;29;20048;-72
2021/04/25 00:11:57;;;;;;;12.48;7.63;;;;;;;6.72;42.98;100469.19;4912620;29;20063;-74
2021/04/25 00:14:23;;;;;;;10.05;5.18;;;;;;;6.77;42.42;100464.53;4914024;29;20056;-75
2021/04/25 00:16:50;;;;;;;11.57;6.00;;;;;;;6.82;42.58;100457.28;4913665;29;20052;-74
2021/04/25 00:19:16;;;;;;;7.70;4.63;;;;;;;6.87;42.87;100452.63;4911048;29;20070;-73
2021/04/25 00:21:44;;;;;;;13.65;5.65;;;;;;;6.87;42.91;100456.09;4911488;29;20143;-73
2021/04/25 00:24:11;;;;;;;12.10;5.20;;;;;;;6.88;43.00;100443.84;4911346;29;20063;-71
2021/04/25 00:26:37;;;;;;;10.13;5.72;;;;;;;6.82;43.30;100444.16;4910369;29;20060;-74
2021/04/25 00:29:04;;;;;;;12.95;5.72;;;;;;;6.83;43.24;100440.59;4910796;29;20052;-72
2021/04/25 00:31:30;;;;;;;9.18;5.20;;;;;;;6.85;43.38;100441.38;4911221;29;20052;-72
2021/04/25 00:33:57;;;;;;;7.63;4.95;;;;;;;6.83;43.50;100435.34;4912801;29;20128;-72
2021/04/25 00:36:23;;;;;;;13.63;7.30;;;;;;;6.82;43.61;100431.03;4911921;29;20064;-73
2021/04/25 00:38:51;;;;;;;11.23;5.93;;;;;;;6.78;43.67;100427.72;4910069;29;20052;-75
2021/04/25 00:41:17;;;;;;;11.55;5.15;;;;;;;6.78;43.67;100421.63;4912271;29;20131;-73
2021/04/25 00:43:44;;;;;;;9.95;6.43;;;;;;;6.75;43.83;100425.25;4894431;29;20052;-74
2021/04/25 00:46:10;;;;;;;10.05;6.00;;;;;;;6.73;43.99;100429.72;4915932;29;20051;-74
2021/04/25 00:48:36;;;;;;;12.00;6.72;;;;;;;6.73;43.94;100427.09;4921130;29;20499;-73
2021/04/25 00:51:08;;;;;;;9.88;5.28;;;;;;;6.73;44.11;100423.63;4917885;29;20102;-74
2021/04/25 00:53:37;;;;;;;14.95;5.82;;;;;;;6.69;44.10;100420.34;4912139;29;20056;-71
2021/04/25 00:56:05;;;;;;;12.65;7.00;;;;;;;6.62;44.30;100421.59;4912984;29;20052;-73
2021/04/25 00:58:32;;;;;;;14.57;6.53;;;;;;;6.54;44.39;100429.88;4911667;29;20114;-74
2021/04/25 01:00:58;;;;;;;13.70;6.30;;;;;;;6.49;44.70;100431.91;4912039;29;20063;-75
2021/04/25 01:03:25;;;;;;;11.32;5.60;;;;;;;6.47;44.65;100423.25;4911653;29;20052;-72
2021/04/25 01:05:51;;;;;;;13.52;5.93;;;;;;;6.39;44.48;100417.56;4910917;29;20052;-75
2021/04/25 01:08:20;;;;;;;12.25;6.13;;;;;;;6.33;44.78;100418.72;4908424;29;20608;-73
2021/04/25 01:10:46;;;;;;;13.98;6.30;;;;;;;6.32;44.72;100420.50;4915321;29;20055;-76
2021/04/25 01:13:14;;;;;;;14.63;6.38;;;;;;;6.24;44.57;100420.06;4915713;29;20052;-72
2021/04/25 01:15:40;;;;;;;14.85;6.10;;;;;;;6.19;44.73;100411.56;4913263;29;20124;-74
2021/04/25 01:18:07;;;;;;;11.60;6.53;;;;;;;6.18;44.91;100417.75;4913307;29;20095;-73
2021/04/25 01:20:33;;;;;;;13.07;5.03;;;;;;;6.19;44.76;100410.72;4918409;29;20103;-72
2021/04/25 01:23:01;;;;;;;10.93;4.50;;;;;;;6.21;44.66;100411.50;4924424;29;20177;-73
2021/04/25 01:25:27;;;;;;;9.07;4.35;;;;;;;6.25;44.67;100420.91;4926478;29;20048;-73
2021/04/25 01:27:54;;;;;;;7.05;3.90;;;;;;;6.26;44.62;100414.72;4927215;29;20331;-75
2021/04/25 01:30:23;;;;;;;10.25;5.55;;;;;;;6.36;44.47;100415.13;4919058;29;20056;-73
2021/04/25 01:32:50;;;;;;;12.52;5.05;;;;;;;6.38;44.39;100414.09;4921177;29;20068;-73
2021/04/25 01:35:21;;;;;;;10.93;5.47;;;;;;;6.47;44.60;100408.34;4925151;29;20139;-73
2021/04/25 01:37:48;;;;;;;14.38;5.18;;;;;;;6.49;44.76;100400.41;4924382;29;20120;-74
2021/04/25 01:40:18;;;;;;;10.93;4.65;;;;;;;6.50;45.35;100405.59;4920244;29;20048;-72
2021/04/25 01:42:44;;;;;;;10.63;4.22;;;;;;;6.48;45.49;100398.69;4914998;29;20095;-72
2021/04/25 01:45:16;;;;;;;9.65;5.18;;;;;;;6.46;45.64;100400.56;4919837;29;20064;-73
2021/04/25 01:47:44;;;;;;;9.05;4.75;;;;;;;6.47;45.91;100392.63;4919584;29;20063;-74
2021/04/25 01:50:10;;;;;;;12.68;6.00;;;;;;;6.46;46.31;100396.19;4915864;29;20135;-72
2021/04/25 01:52:36;;;;;;;9.77;6.30;;;;;;;6.45;46.65;100393.63;4914640;29;20111;-72
2021/04/25 01:55:04;;;;;;;10.82;5.45;;;;;;;6.50;46.78;100399.50;4913803;29;20056;-72
2021/04/25 01:57:31;;;;;;;11.20;7.18;;;;;;;6.47;46.86;100397.03;4910963;29;20058;-73
2021/04/25 01:59:58;;;;;;;24.92;11.75;;;;;;;6.52;46.97;100392.38;4914021;29;20062;-71
2021/04/25 02:02:24;;;;;;;27.40;14.45;;;;;;;6.51;47.36;100391.50;4911463;29;20107;-75
2021/04/25 02:04:51;;;;;;;30.85;15.95;;;;;;;6.43;48.15;100395.50;4911240;29;20429;-74
2021/04/25 02:07:17;;;;;;;36.97;16.77;;;;;;;6.34;48.43;100394.19;4910613;29;20052;-72
2021/04/25 02:09:44;;;;;;;34.58;20.50;;;;;;;6.27;48.92;100391.03;4909571;29;20048;-75
2021/04/25 02:12:11;;;;;;;43.22;23.17;;;;;;;6.23;49.26;100389.53;4910098;29;20052;-75
2021/04/25 02:14:39;;;;;;;43.35;22.55;;;;;;;6.21;49.38;100385.25;4915821;29;20126;-74
2021/04/25 02:17:05;;;;;;;47.88;24.60;;;;;;;6.23;49.43;100389.53;4913293;29;20103;-72
2021/04/25 02:19:31;;;;;;;55.33;22.90;;;;;;;6.29;49.47;100383.09;4912093;29;20063;-72
2021/04/25 02:21:58;;;;;;;45.78;22.33;;;;;;;6.31;49.55;100376.84;4912916;29;20060;-73
2021/04/25 02:24:24;;;;;;;52.60;26.60;;;;;;;6.36;49.69;100383.63;4913170;29;20082;-73
2021/04/25 02:26:50;;;;;;;44.67;23.77;;;;;;;6.40;49.68;100385.16;4911927;29;20056;-70
2021/04/25 02:29:17;;;;;;;44.90;23.13;;;;;;;6.33;49.99;100384.63;4912979;29;20087;-71
2021/04/25 02:31:44;;;;;;;46.00;24.77;;;;;;;6.25;50.31;100382.41;4913933;29;20103;-72
2021/04/25 02:34:11;;;;;;;54.80;26.25;;;;;;;6.26;50.20;100380.63;4913377;29;20190;-72
2021/04/25 02:36:37;;;;;;;48.22;27.98;;;;;;;6.21;50.45;100391.38;4914085;29;20107;-75
2021/04/25 02:39:04;;;;;;;57.60;29.98;;;;;;;6.10;50.79;100391.94;4910913;29;20094;-72
2021/04/25 02:41:31;;;;;;;53.03;24.02;;;;;;;5.96;51.32;100398.78;4912387;29;20064;-72
2021/04/25 02:43:57;;;;;;;27.35;16.45;;;;;;;5.86;50.64;100391.38;4913197;29;20053;-73
2021/04/25 02:46:23;;;;;;;32.22;18.70;;;;;;;5.79;50.39;100395.22;4913359;29;20111;-73
2021/04/25 02:48:52;;;;;;;26.50;15.80;;;;;;;5.67;50.41;100385.34;4912014;29;20516;-72
2021/04/25 02:51:18;;;;;;;25.73;14.23;;;;;;;5.67;50.12;100393.22;4913352;29;20828;-73
2021/04/25 02:53:45;;;;;;;30.90;15.05;;;;;;;5.63;50.07;100396.91;4912794;29;20512;-73
2021/04/25 02:56:11;;;;;;;21.95;14.07;;;;;;;5.62;49.90;100387.34;4913944;29;20113;-70
2021/04/25 02:58:37;;;;;;;29.23;15.05;;;;;;;5.61;49.86;100388.28;4915209;29;20163;-71
2021/04/25 03:01:04;;;;;;;28.48;13.77;;;;;;;5.61;49.61;100389.13;4913925;29;20052;-74
2021/04/25 03:03:30;;;;;;;21.75;11.90;;;;;;;5.64;49.56;100385.53;4912739;29;20059;-72
2021/04/25 03:05:58;;;;;;;22.63;11.90;;;;;;;5.73;49.35;100377.19;4912755;29;20056;-73
2021/04/25 03:08:24;;;;;;;22.73;12.85;;;;;;;5.81;49.15;100380.25;4911148;29;20048;-73
2021/04/25 03:10:51;;;;;;;32.33;15.23;;;;;;;5.85;48.89;100389.69;4912358;29;20103;-71
2021/04/25 03:13:17;;;;;;;30.65;15.40;;;;;;;5.83;48.86;100383.66;4912944;29;20434;-73
2021/04/25 03:15:44;;;;;;;27.60;14.65;;;;;;;5.88;48.93;100379.03;4913072;29;20052;-74
2021/04/25 03:18:10;;;;;;;27.48;13.00;;;;;;;5.87;49.15;100387.84;4911950;29;20052;-71
2021/04/25 03:20:37;;;;;;;28.13;15.00;;;;;;;5.84;49.42;100389.75;4912415;29;20059;-74
2021/04/25 03:23:05;;;;;;;26.00;14.88;;;;;;;5.71;50.14;100386.91;4910983;29;20063;-73
2021/04/25 03:25:32;;;;;;;31.42;16.52;;;;;;;5.62;50.54;100388.22;4911152;29;20056;-73
2021/04/25 03:28:00;;;;;;;33.65;18.45;;;;;;;5.57;50.79;100390.22;4910861;29;20066;-72
2021/04/25 03:30:26;;;;;;;36.78;18.95;;;;;;;5.53;51.39;100391.28;4913061;29;20052;-72
2021/04/25 03:32:53;;;;;;;39.65;21.98;;;;;;;5.50;51.70;100394.06;4911579;29;20055;-71
2021/04/25 03:35:20;;;;;;;38.92;23.15;;;;;;;5.47;52.04;100391.56;4912573;29;20067;-72
2021/04/25 03:37:46;;;;;;;40.55;19.67;;;;;;;5.48;52.10;100393.28;4910907;29;20079;-72
2021/04/25 03:40:17;;;;;;;32.47;18.02;;;;;;;5.39;52.14;100394.59;4910018;29;20074;-71
2021/04/25 03:42:44;;;;;;;30.90;15.73;;;;;;;5.41;52.01;100397.97;4910548;29;20056;-72
2021/04/25 03:45:13;;;;;;;32.63;17.25;;;;;;;5.41;51.93;100397.13;4910775;29;20048;-70
2021/04/25 03:47:41;;;;;;;27.90;15.35;;;;;;;5.40;52.07;100393.66;4911359;29;20052;-72
2021/04/25 03:50:08;;;;;;;24.77;12.43;;;;;;;5.41;51.92;100387.50;4912828;29;20070;-71
2021/04/25 03:52:35;;;;;;;25.05;13.48;;;;;;;5.41;51.69;100384.88;4911729;29;20123;-70
2021/04/25 03:55:01;;;;;;;30.63;14.43;;;;;;;5.44;51.32;100392.59;4912954;29;20051;-70
2021/04/25 03:57:29;;;;;;;22.60;13.27;;;;;;;5.48;51.30;100388.88;4912340;29;20056;-72
2021/04/25 03:59:56;;;;;;;30.95;15.38;;;;;;;5.51;51.21;100395.72;4910350;29;20048;-70
2021/04/25 04:02:22;;;;;;;29.00;15.55;;;;;;;5.49;51.41;100398.47;4909750;29;20052;-73
2021/04/25 04:04:48;;;;;;;30.75;16.05;;;;;;;5.48;51.57;100396.75;4910091;29;20052;-76
2021/04/25 04:07:15;;;;;;;30.80;16.60;;;;;;;5.47;51.91;100396.81;4910110;29;20066;-72
2021/04/25 04:09:41;;;;;;;32.10;18.42;;;;;;;5.48;52.04;100396.75;4910056;29;20049;-72
2021/04/25 04:12:08;;;;;;;41.70;21.42;;;;;;;5.48;52.09;100396.75;4912946;29;20048;-70
2021/04/25 04:14:36;;;;;;;42.72;21.70;;;;;;;5.67;51.73;100403.69;4910460;29;20055;-70
2021/04/25 04:17:02;;;;;;;40.45;24.20;;;;;;;6.11;51.31;100405.88;4877686;29;20086;-71
2021/04/25 04:19:29;;;;;;;44.03;23.95;;;;;;;6.70;50.22;100404.50;4910967;29;20048;-70
2021/04/25 04:21:55;;;;;;;43.13;24.27;;;;;;;7.27;49.00;100400.53;4909736;29;20048;-73
2021/04/25 04:24:22;;;;;;;42.95;20.58;;;;;;;7.27;48.63;100400.53;4911016;29;20052;-71
2021/04/25 04:26:49;;;;;;;34.35;19.52;;;;;;;7.52;48.13;100407.03;4910411;29;20094;-70
2021/04/25 04:29:15;;;;;;;29.88;17.13;;;;;;;7.73;47.40;100404.94;4909125;29;20437;-70
2021/04/25 04:31:42;;;;;;;28.85;14.77;;;;;;;7.83;47.25;100401.69;4911258;29;20118;-71
2021/04/25 04:34:09;;;;;;;26.00;14.52;;;;;;;8.21;46.52;100398.56;4910662;29;20070;-70
2021/04/25 04:36:35;;;;;;;24.23;13.85;;;;;;;8.24;46.06;100390.44;4909328;29;20575;-70
2021/04/25 04:39:02;;;;;;;27.55;15.68;;;;;;;8.21;46.28;100395.06;4908603;29;20050;-70
2021/04/25 04:41:28;;;;;;;24.95;13.93;;;;;;;8.21;45.96;100395.06;4912060;29;20044;-71
2021/04/25 04:43:54;;;;;;;38.40;13.60;;;;;;;8.08;46.36;100394.13;4910294;29;20102;-71
2021/04/25 04:46:22;;;;;;;28.58;13.13;;;;;;;8.20;45.96;100388.97;4910557;29;20056;-71
2021/04/25 04:48:49;;;;;;;26.02;13.07;;;;;;;8.26;45.77;100394.78;4892843;29;20130;-71
2021/04/25 04:51:15;;;;;;;29.40;14.90;;;;;;;8.27;45.68;100392.06;4909293;29;20469;-74
2021/04/25 04:53:42;;;;;;;23.58;12.38;;;;;;;8.30;45.79;100402.41;4909442;29;20060;-73
2021/04/25 04:56:08;;;;;;;28.92;14.60;;;;;;;8.49;45.30;100399.53;4911084;29;20143;-74
2021/04/25 04:58:35;;;;;;;27.58;13.65;;;;;;;8.48;45.06;100400.47;4909620;29;20052;-71
2021/04/25 05:01:01;;;;;;;27.27;13.38;;;;;;;8.38;45.32;100394.88;4908885;29;20048;-73
2021/04/25 05:03:28;;;;;;;22.90;14.10;;;;;;;8.31;45.23;100390.94;4909000;29;20048;-70
2021/04/25 05:05:55;;;;;;;26.00;12.65;;;;;;;8.27;44.98;100384.19;4908450;29;20051;-71
2021/04/25 05:08:21;;;;;;;26.80;12.77;;;;;;;8.17;44.93;100383.03;4909210;29;20099;-72
2021/04/25 05:10:48;;;;;;;19.38;11.60;;;;;;;8.24;44.85;100384.34;4908511;29;20110;-72
2021/04/25 05:13:14;;;;;;;18.33;11.05;;;;;;;8.61;43.88;100377.72;4906921;29;20059;-71
2021/04/25 05:15:41;;;;;;;25.75;12.90;;;;;;;8.80;43.65;100371.28;4908385;29;20111;-68
2021/04/25 05:18:08;;;;;;;19.80;10.07;;;;;;;8.93;43.38;100380.13;4908070;29;20126;-65
2021/04/25 05:20:35;;;;;;;17.75;11.30;;;;;;;9.09;43.34;100381.75;4908085;29;20134;-68
2021/04/25 05:23:03;;;;;;;15.40;10.27;;;;;;;9.44;42.58;100379.47;4908119;29;20063;-67
2021/04/25 05:25:30;;;;;;;22.48;10.68;;;;;;;9.90;42.01;100375.53;4908022;29;20328;-66
2021/04/25 05:27:56;;;;;;;18.88;10.98;;;;;;;10.52;40.88;100380.97;4909632;29;20088;-66
2021/04/25 05:30:23;;;;;;;16.02;10.75;;;;;;;11.39;39.61;100375.59;4908058;29;20111;-65
2021/04/25 05:32:50;;;;;;;16.73;8.88;;;;;;;11.95;38.82;100374.97;4907570;29;20080;-67
2021/04/25 05:35:17;;;;;;;15.73;8.63;;;;;;;11.90;38.06;100385.06;4908484;29;20070;-68
2021/04/25 05:37:43;;;;;;;15.00;8.65;;;;;;;11.54;38.76;100381.59;4908621;29;20060;-76
2021/04/25 05:40:12;;;;;;;16.70;9.13;;;;;;;11.14;38.67;100381.84;4908622;29;20044;-72
2021/04/25 05:42:39;;;;;;;21.73;9.30;;;;;;;10.69;39.42;100377.13;4907532;29;20251;-69
2021/04/25 05:45:07;;;;;;;15.88;8.02;;;;;;;10.45;39.18;100386.78;4902656;29;20060;-74
2021/04/25 05:47:34;;;;;;;13.13;7.82;;;;;;;10.39;39.28;100384.56;4909872;29;20063;-66
2021/04/25 05:50:00;;;;;;;10.13;5.53;;;;;;;10.27;38.89;100381.78;4911706;29;20067;-71
2021/04/25 05:52:27;;;;;;;15.55;8.93;;;;;;;10.09;39.23;100381.25;4911833;29;20052;-72
2021/04/25 05:54:53;;;;;;;18.90;8.20;;;;;;;9.98;38.54;100383.78;4912711;29;20056;-70
2021/04/25 05:57:21;;;;;;;21.33;8.90;;;;;;;9.87;38.84;100381.88;4911542;29;20120;-69
2021/04/25 05:59:47;;;;;;;21.38;10.07;;;;;;;9.77;38.74;100386.09;4910963;29;20084;-69
2021/04/25 06:02:13;;;;;;;18.77;10.05;;;;;;;9.53;38.53;100384.13;4914170;29;20052;-70
2021/04/25 06:04:41;;;;;;;11.77;6.95;;;;;;;9.26;38.61;100396.50;4912781;29;20135;-68
2021/04/25 06:07:09;;;;;;;15.65;8.05;;;;;;;9.08;39.08;100394.09;4910680;29;20044;-71
2021/04/25 06:09:36;;;;;;;14.60;8.82;;;;;;;9.04;39.12;100399.63;4913589;29;20649;-68
2021/04/25 06:12:02;;;;;;;16.20;8.30;;;;;;;8.98;39.30;100391.22;4911617;29;20058;-70
2021/04/25 06:14:32;;;;;;;15.38;7.43;;;;;;;8.97;39.26;100389.50;4915237;29;20052;-69
2021/04/25 06:16:59;;;;;;;9.65;4.90;;;;;;;8.95;38.76;100385.28;4914171;29;20108;-71
2021/04/25 06:19:25;;;;;;;9.18;5.97;;;;;;;8.79;38.50;100380.97;4915458;29;20143;-72
2021/04/25 06:21:51;;;;;;;8.45;5.05;;;;;;;8.73;38.28;100385.78;4914513;29;20497;-70
2021/04/25 06:24:18;;;;;;;14.27;6.55;;;;;;;8.62;37.68;100383.81;4917354;29;20032;-69
2021/04/25 06:26:44;;;;;;;14.45;5.32;;;;;;;8.53;37.70;100393.13;4923273;29;20048;-70
2021/04/25 06:29:12;;;;;;;9.77;4.65;;;;;;;8.55;37.92;100388.63;4924013;29;20062;-70
2021/04/25 06:31:39;;;;;;;7.45;4.30;;;;;;;8.56;37.90;100390.31;4926047;29;20048;-70
2021/04/25 06:34:05;;;;;;;7.25;2.88;;;;;;;8.56;37.39;100385.03;4926718;29;20052;-69
2021/04/25 06:36:32;;;;;;;6.55;3.15;;;;;;;8.58;36.67;100388.44;4925498;29;20054;-69
2021/04/25 06:38:58;;;;;;;9.55;4.00;;;;;;;8.49;35.39;100388.16;4926316;29;20653;-70
2021/04/25 06:41:25;;;;;;;7.95;3.65;;;;;;;8.45;34.70;100387.50;4923717;29;20289;-70
2021/04/25 06:43:52;;;;;;;9.75;5.05;;;;;;;8.34;34.24;100392.56;4921744;29;20051;-72
2021/04/25 06:46:18;;;;;;;7.70;3.88;;;;;;;8.33;33.30;100391.69;4923693;29;20253;-69
2021/04/25 06:48:46;;;;;;;6.53;2.83;;;;;;;8.39;33.41;100393.09;4921608;29;20062;-68
2021/04/25 06:51:12;;;;;;;5.70;3.08;;;;;;;8.45;33.68;100387.50;4922508;29;20477;-68
2021/04/25 06:53:39;;;;;;;5.10;2.33;;;;;;;8.60;33.75;100391.81;4922507;29;20098;-71
2021/04/25 06:56:05;;;;;;;3.97;1.90;;;;;;;8.75;33.60;100387.38;4924858;29;20048;-71
2021/04/25 06:58:34;;;;;;;3.72;2.53;;;;;;;8.91;33.51;100394.31;4925379;29;20062;-71
2021/04/25 07:01:01;;;;;;;4.93;1.83;;;;;;;8.98;33.37;100396.47;4913536;29;20132;-74
2021/04/25 07:03:28;;;;;;;3.15;1.80;;;;;;;9.04;32.79;100391.75;4918163;29;20082;-73
2021/04/25 07:05:56;;;;;;;5.05;2.55;;;;;;;8.89;31.58;100391.78;4916944;29;20131;-73
2021/04/25 07:08:24;;;;;;;5.78;2.00;;;;;;;8.60;30.27;100381.28;4916233;29;20059;-73
2021/04/25 07:10:51;;;;;;;4.40;2.40;;;;;;;8.64;30.43;100386.34;4900822;29;20055;-75
2021/04/25 07:13:18;;;;;;;3.42;1.98;;;;;;;8.57;30.23;100389.38;4915235;29;20143;-71
2021/04/25 07:15:44;;;;;;;8.77;1.40;;;;;;;8.60;29.37;100393.59;4916081;29;20051;-77
2021/04/25 07:18:11;;;;;;;3.83;2.50;;;;;;;8.66;28.99;100385.34;4915360;29;20564;-72
2021/04/25 07:20:37;;;;;;;3.38;1.90;;;;;;;8.79;29.52;100390.69;4915707;29;20530;-74
2021/04/25 07:23:05;;;;;;;2.58;1.42;;;;;;;8.92;29.61;100386.31;4914080;29;20059;-73
2021/04/25 07:25:32;;;;;;;2.75;1.60;;;;;;;9.29;29.85;100378.69;4911554;29;20058;-70
2021/04/25 07:27:59;;;;;;;3.65;1.67;;;;;;;9.76;29.17;100382.59;4912489;29;20048;-70
2021/04/25 07:30:26;;;;;;;3.72;1.80;;;;;;;9.81;28.36;100382.28;4910484;29;20124;-71
2021/04/25 07:32:59;;;;;;;6.18;2.63;;;;;;;9.74;27.79;100381.88;4920853;29;20048;-71
2021/04/25 07:35:26;;;;;;;4.13;2.05;;;;;;;9.59;28.31;100379.41;4914147;29;20048;-76
2021/04/25 07:37:53;;;;;;;1.48;1.35;;;;;;;9.72;28.61;100386.41;4910628;29;20474;-71
2021/04/25 07:40:20;;;;;;;2.63;1.70;;;;;;;10.23;28.76;100384.78;4909856;29;20040;-72
2021/04/25 07:42:47;;;;;;;3.30;1.48;;;;;;;10.65;27.89;100375.66;4909046;29;20153;-71
2021/04/25 07:45:14;;;;;;;2.85;1.77;;;;;;;10.78;27.91;100375.63;4911167;29;20054;-71
2021/04/25 07:47:42;;;;;;;3.13;1.70;;;;;;;11.06;27.99;100378.94;4909029;29;20051;-70
2021/04/25 07:50:10;;;;;;;2.42;2.08;;;;;;;11.21;27.56;100361.94;4913117;29;20052;-71
2021/04/25 07:52:37;;;;;;;3.53;2.38;;;;;;;11.38;26.80;100371.28;4907697;29;20575;-69
2021/04/25 07:55:07;;;;;;;4.40;2.55;;;;;;;11.17;26.62;100376.34;4910037;29;20819;-72
2021/04/25 07:57:36;;;;;;;5.07;2.92;;;;;;;11.02;26.86;100373.03;4908569;29;20074;-70
2021/04/25 08:00:04;;;;;;;4.88;2.30;;;;;;;11.39;26.99;100372.13;4906667;29;20096;-71
2021/04/25 08:02:33;;;;;;;3.58;1.80;;;;;;;11.79;27.10;100377.94;4874901;29;20075;-72
2021/04/25 08:05:00;;;;;;;3.55;2.30;;;;;;;12.14;25.72;100368.28;4908818;29;20497;-70
2021/04/25 08:07:27;;;;;;;3.67;2.05;;;;;;;11.62;25.91;100370.41;4889221;29;20056;-68
2021/04/25 08:09:53;;;;;;;3.55;2.08;;;;;;;11.02;26.47;100373.03;4905083;29;20044;-70
2021/04/25 08:12:23;;;;;;;3.95;2.40;;;;;;;10.79;27.21;100377.31;4906375;29;20044;-69
2021/04/25 08:14:51;;;;;;;3.50;1.67;;;;;;;10.74;27.56;100381.25;4904989;29;20074;-71
2021/04/25 08:17:18;;;;;;;4.13;2.05;;;;;;;10.60;27.28;100379.56;4906850;29;20044;-68
2021/04/25 08:19:44;;;;;;;4.53;2.38;;;;;;;10.47;27.14;100376.97;4905429;29;20091;-70
2021/04/25 08:22:11;;;;;;;4.38;1.95;;;;;;;10.50;27.60;100377.59;4902960;29;20143;-68
2021/04/25 08:24:37;;;;;;;3.17;1.77;;;;;;;10.96;27.72;100377.91;4904582;29;20044;-69
2021/04/25 08:27:04;;;;;;;7.13;2.38;;;;;;;11.01;27.70;100371.31;4903426;29;20377;-69
2021/04/25 08:29:30;;;;;;;3.40;1.95;;;;;;;10.60;27.26;100385.69;4886007;29;20060;-69
2021/04/25 08:31:59;;;;;;;3.75;1.98;;;;;;;10.23;27.63;100382.13;4904567;29;20090;-74
2021/04/25 08:34:26;;;;;;;3.70;2.05;;;;;;;10.15;28.22;100380.00;4888156;29;20052;-68
2021/04/25 08:36:52;;;;;;;1.75;1.48;;;;;;;9.88;28.12;100380.09;4901734;29;20052;-71
2021/04/25 08:39:19;;;;;;;2.55;1.35;;;;;;;9.71;28.60;100389.97;4901911;29;20056;-71
2021/04/25 08:41:47;;;;;;;3.28;2.05;;;;;;;9.83;28.70;100377.78;4903152;29;20135;-68
2021/04/25 08:44:18;;;;;;;2.30;1.48;;;;;;;10.31;28.56;100372.72;4903413;29;20701;-72
2021/04/25 08:46:46;;;;;;;2.83;1.42;;;;;;;11.06;27.91;100365.72;4905594;29;20058;-73
2021/04/25 08:49:16;;;;;;;3.17;2.05;;;;;;;11.64;27.74;100357.91;4909479;29;20049;-71
2021/04/25 08:51:43;;;;;;;3.85;2.17;;;;;;;12.40;26.91;100366.25;4901741;29;20044;-73
2021/04/25 08:54:12;;;;;;;2.22;1.63;;;;;;;12.38;25.28;100357.59;4887935;29;20058;-73
2021/04/25 08:56:43;;;;;;;3.20;2.10;;;;;;;12.55;25.36;100362.41;4905256;29;20048;-73
2021/04/25 08:59:09;;;;;;;6.47;2.45;;;;;;;12.52;24.89;100349.41;4908560;29;20083;-72
2021/04/25 09:01:37;;;;;;;8.80;2.45;;;;;;;12.45;24.98;100348.19;4907316;29;20058;-72
2021/04/25 09:04:04;;;;;;;2.25;1.40;;;;;;;11.86;24.90;100349.19;4904209;29;20420;-74
2021/04/25 09:06:32;;;;;;;3.67;2.38;;;;;;;11.21;25.44;100351.38;4903949;29;20494;-69
2021/04/25 09:09:01;;;;;;;3.22;1.63;;;;;;;10.85;26.43;100355.72;4901946;29;20786;-68
2021/04/25 09:11:30;;;;;;;4.47;1.83;;;;;;;10.64;26.47;100365.19;4903033;29;20055;-71
2021/04/25 09:14:19;;;;;;;4.47;1.20;;;;;;;10.46;26.33;100362.91;4910771;29;20147;-71
2021/04/25 09:16:48;;;;;;;4.22;2.47;;;;;;;10.23;25.75;100355.72;4906203;29;20058;-72
2021/04/25 09:19:14;;;;;;;2.75;1.65;;;;;;;9.95;25.79;100353.16;4907374;29;20421;-72
2021/04/25 09:21:59;;;;;;;3.47;2.03;;;;;;;10.03;26.36;100352.66;4904960;29;20063;-71
2021/04/25 09:24:28;;;;;;;4.50;2.05;;;;;;;10.24;26.74;100354.75;4903394;29;20190;-71
2021/04/25 09:26:55;;;;;;;5.97;2.15;;;;;;;10.48;26.65;100346.97;4905060;29;20056;-73
2021/04/25 09:29:22;;;;;;;2.83;2.15;;;;;;;10.67;26.34;100346.50;4904704;29;20056;-73
2021/04/25 09:31:51;;;;;;;2.40;1.13;;;;;;;10.99;26.10;100340.69;4903309;29;20135;-72
2021/04/25 09:34:25;;;;;;;3.70;1.48;;;;;;;11.61;25.69;100335.19;4910624;29;20052;-79
2021/04/25 09:36:54;;;;;;;1.88;0.98;;;;;;;11.88;22.68;100328.72;4909403;29;20054;-80
2021/04/25 09:39:24;;;;;;;1.08;1.00;;;;;;;12.05;22.37;100333.59;4908430;29;20214;-76
2021/04/25 09:41:50;;;;;;;2.63;1.52;;;;;;;11.81;22.90;100327.50;4910679;29;20052;-77
2021/04/25 09:44:31;;;;;;;2.47;1.45;;;;;;;11.99;23.02;100323.50;4908668;29;20059;-74
2021/04/25 09:47:04;;;;;;;3.38;1.63;;;;;;;12.05;22.71;100322.19;4907754;29;20052;-74
2021/04/25 09:49:44;;;;;;;2.60;1.70;;;;;;;11.88;22.61;100325.25;4917783;29;20048;-75
2021/04/25 09:52:13;;;;;;;2.90;1.90;;;;;;;11.53;22.48;100324.34;4914799;29;20056;-71
2021/04/25 09:54:41;;;;;;;3.72;1.80;;;;;;;11.55;22.82;100326.88;4909656;29;20063;-69
2021/04/25 09:57:31;;;;;;;2.08;1.38;;;;;;;11.47;22.56;100328.28;4904962;29;20059;-72
2021/04/25 09:59:58;;;;;;;3.05;1.30;;;;;;;11.54;22.29;100331.31;4903610;29;20056;-69
2021/04/25 10:02:25;;;;;;;2.65;1.38;;;;;;;11.70;21.25;100330.16;4903665;29;20630;-73
2021/04/25 10:04:52;;;;;;;2.53;1.40;;;;;;;12.11;21.75;100331.44;4903458;29;20056;-68
2021/04/25 10:07:18;;;;;;;2.60;1.33;;;;;;;12.16;20.92;100332.78;4906106;29;20063;-68
2021/04/25 10:09:47;;;;;;;3.03;0.98;;;;;;;12.27;21.27;100325.81;4903074;29;20087;-74
2021/04/25 10:12:13;;;;;;;2.72;1.55;;;;;;;12.68;21.26;100321.69;4902158;29;20052;-75
2021/04/25 10:14:40;;;;;;;3.90;1.70;;;;;;;12.63;21.01;100328.19;4905782;29;20459;-73
2021/04/25 10:17:07;;;;;;;2.00;1.65;;;;;;;12.30;20.72;100329.06;4905964;29;20191;-74
2021/04/25 10:19:35;;;;;;;1.60;1.40;;;;;;;11.72;20.84;100326.44;4894728;29;20059;-75
2021/04/25 10:22:02;;;;;;;4.65;1.77;;;;;;;11.31;21.48;100337.47;4907306;29;20044;-72
2021/04/25 10:24:29;;;;;;;4.65;1.77;;;;;;;10.98;21.53;100329.25;4908113;29;20140;-71
2021/04/25 10:27:02;;;;;;;3.17;1.95;;;;;;;10.58;22.29;100332.13;4907708;29;20350;-76
2021/04/25 10:29:34;;;;;;;1.67;1.20;;;;;;;10.40;21.92;100330.81;4904323;29;20056;-77
2021/04/25 10:32:04;;;;;;;2.95;1.42;;;;;;;10.26;21.68;100331.75;4905720;29;20206;-74
2021/04/25 10:34:31;;;;;;;2.97;1.25;;;;;;;10.51;21.73;100331.75;4906666;29;20087;-76
2021/04/25 10:37:02;;;;;;;2.13;1.42;;;;;;;10.95;21.94;100324.22;4907840;29;20052;-73
2021/04/25 10:39:37;;;;;;;1.50;1.02;;;;;;;11.74;21.17;100327.16;4905883;29;20060;-71
2021/04/25 10:42:29;;;;;;;1.33;1.23;;;;;;;11.94;19.50;100316.84;4906616;29;20129;-72
2021/04/25 10:45:25;;;;;;;2.45;1.30;;;;;;;12.55;20.95;100316.50;4907216;29;20132;-71
2021/04/25 10:48:27;;;;;;;3.38;1.42;;;;;;;13.21;20.40;100311.16;4905287;29;20114;-70
2021/04/25 10:50:55;;;;;;;2.40;1.25;;;;;;;13.86;20.97;100317.22;4845568;29;20129;-70
2021/04/25 10:53:27;;;;;;;2.35;1.60;;;;;;;14.26;19.91;100315.59;4845955;29;20666;-70
2021/04/25 10:56:29;;;;;;;3.45;1.67;;;;;;;13.95;19.45;100313.81;4846607;29;20145;-72
2021/04/25 10:59:27;;;;;;;2.08;1.10;;;;;;;13.56;19.58;100310.91;4845034;29;20058;-69
2021/04/25 11:01:55;;;;;;;2.05;1.55;;;;;;;13.47;19.96;100313.47;4846727;29;20077;-70
2021/04/25 11:04:58;;;;;;;6.32;3.30;;;;;;;12.96;20.99;100318.50;4846612;29;20487;-70
2021/04/25 11:07:49;;;;;;;2.97;1.60;;;;;;;12.65;20.61;100317.47;4844860;29;20080;-70
2021/04/25 11:10:22;;;;;;;3.33;1.77;;;;;;;12.43;21.23;100324.47;4843224;29;20192;-71
2021/04/25 11:12:49;;;;;;;2.03;1.60;;;;;;;12.17;20.89;100333.59;4843603;29;20664;-68
2021/04/25 11:15:48;;;;;;;3.17;1.48;;;;;;;11.88;21.34;100331.38;4847276;29;20136;-69
2021/04/25 11:18:48;;;;;;;2.08;1.30;;;;;;;11.44;22.07;100336.44;4850605;29;20097;-70
2021/04/25 11:21:41;;;;;;;1.83;1.17;;;;;;;11.40;22.26;100342.09;4849055;29;20045;-72
2021/04/25 11:24:37;;;;;;;2.05;1.27;;;;;;;11.20;22.36;100343.53;4774500;30;20059;-71
2021/04/25 11:27:06;;;;;;;3.90;1.80;;;;;;;11.10;23.51;100346.88;4781121;29;20708;-71
2021/04/25 11:29:55;;;;;;;3.67;1.88;;;;;;;10.93;24.13;100347.28;4809943;29;20062;-72
2021/04/25 11:32:38;;;;;;;2.55;2.08;;;;;;;10.95;24.59;100349.78;4809888;29;20141;-71